Time;durP1;ratioP1;P1;durP2;ratioP2;P2;SDS_P1;SDS_P2;PMS_P1;PMS_P2;Temp;Humidity;BMP_temperature;BMP_pressure;BME280_temperature;BME280_humidity;BME280_pressure;Samples;Min_cycle;Max_cycle;Signal;HPM_P1;HPM_P2
2022/07/21 00:00:04;;;;;;;18.23;15.57;;;;;;;;;;5145385;27;20194;-69
2022/07/21 00:02:30;;;;;;;18.73;15.23;;;;;;;;;;5145416;27;20194;-69
2022/07/21 00:04:57;;;;;;;16.35;14.70;;;;;;;;;;5144885;27;20218;-69
2022/07/21 00:07:23;;;;;;;16.75;15.00;;;;;;;;;;5145014;27;20278;-69
2022/07/21 00:09:49;;;;;;;16.02;14.52;;;;;;;;;;5145367;27;20201;-69
2022/07/21 00:12:17;;;;;;;16.17;14.77;;;;;;;;;;5145058;27;20241;-69
2022/07/21 00:14:43;;;;;;;17.40;15.50;;;;;;;;;;5145001;27;20533;-69
2022/07/21 00:17:09;;;;;;;16.42;14.80;;;;;;;;;;5144800;27;20379;-69
2022/07/21 00:19:36;;;;;;;17.23;15.43;;;;;;;;;;5144924;27;20197;-69
2022/07/21 00:22:02;;;;;;;16.95;15.30;;;;;;;;;;5144973;27;20202;-69
2022/07/21 00:24:28;;;;;;;17.75;15.05;;;;;;;;;;5145101;27;20224;-69
2022/07/21 00:26:54;;;;;;;17.77;15.57;;;;;;;;;;5144637;27;20240;-69
2022/07/21 00:29:22;;;;;;;19.60;15.85;;;;;;;;;;5144987;27;20238;-69
2022/07/21 00:31:48;;;;;;;18.08;16.13;;;;;;;;;;5144652;27;20212;-69
2022/07/21 00:34:15;;;;;;;18.23;15.35;;;;;;;;;;5144487;27;20217;-69
2022/07/21 00:36:41;;;;;;;18.98;14.35;;;;;;;;;;5144385;27;20194;-69
2022/07/21 00:39:07;;;;;;;17.42;15.30;;;;;;;;;;5144726;27;20198;-69
2022/07/21 00:41:34;;;;;;;17.92;15.45;;;;;;;;;;5144691;27;20261;-69
2022/07/21 00:44:00;;;;;;;17.40;15.70;;;;;;;;;;5144383;27;20198;-69
2022/07/21 00:46:28;;;;;;;18.00;15.98;;;;;;;;;;5144151;27;20198;-69
2022/07/21 00:48:54;;;;;;;18.77;16.25;;;;;;;;;;5144165;27;20506;-69
2022/07/21 00:51:20;;;;;;;24.02;18.10;;;;;;;;;;5144396;27;20469;-69
2022/07/21 00:53:46;;;;;;;17.70;15.88;;;;;;;;;;5144358;27;20210;-69
2022/07/21 00:56:13;;;;;;;20.80;18.08;;;;;;;;;;5144126;27;20195;-69
2022/07/21 00:58:40;;;;;;;20.55;17.13;;;;;;;;;;5144274;27;20194;-69
2022/07/21 01:01:06;;;;;;;20.25;16.45;;;;;;;;;;5144052;27;20197;-69
2022/07/21 01:03:34;;;;;;;21.90;18.00;;;;;;;;;;5143546;27;20198;-69
2022/07/21 01:06:00;;;;;;;19.83;17.88;;;;;;;;;;5144000;27;20214;-69
2022/07/21 01:08:27;;;;;;;18.90;16.75;;;;;;;;;;5143873;27;20251;-69
2022/07/21 01:10:53;;;;;;;19.65;17.73;;;;;;;;;;5143996;27;20264;-69
2022/07/21 01:13:20;;;;;;;20.25;16.98;;;;;;;;;;5143988;27;20220;-69
2022/07/21 01:15:46;;;;;;;20.02;17.98;;;;;;;;;;5143917;27;20382;-69
2022/07/21 01:18:12;;;;;;;21.77;17.23;;;;;;;;;;5144109;27;20209;-70
2022/07/21 01:20:41;;;;;;;19.42;17.23;;;;;;;;;;5143331;27;20206;-70
2022/07/21 01:23:09;;;;;;;22.02;17.15;;;;;;;;;;5143975;27;20501;-70
2022/07/21 01:25:36;;;;;;;19.70;17.70;;;;;;;;;;5143752;27;20198;-70
2022/07/21 01:28:02;;;;;;;18.83;16.88;;;;;;;;;;5143690;27;20198;-69
2022/07/21 01:30:28;;;;;;;18.98;16.92;;;;;;;;;;5143737;27;20194;-69
2022/07/21 01:32:54;;;;;;;19.95;17.95;;;;;;;;;;5143991;27;20571;-69
2022/07/21 01:35:21;;;;;;;25.70;16.95;;;;;;;;;;5143688;27;20217;-69
2022/07/21 01:37:48;;;;;;;18.80;16.92;;;;;;;;;;5143596;27;20246;-69
2022/07/21 01:43:01;;;;;;;20.40;17.80;;;;;;;;;;5143730;27;20243;-69
2022/07/21 01:45:28;;;;;;;19.73;17.38;;;;;;;;;;5143836;27;20190;-69
2022/07/21 01:47:54;;;;;;;20.35;18.20;;;;;;;;;;5143455;27;20194;-69
2022/07/21 01:50:22;;;;;;;18.92;17.08;;;;;;;;;;5143614;27;20195;-69
2022/07/21 01:52:49;;;;;;;19.42;17.42;;;;;;;;;;5143474;27;20261;-69
2022/07/21 01:55:16;;;;;;;19.20;16.83;;;;;;;;;;5143563;27;20218;-69
2022/07/21 01:57:42;;;;;;;20.58;18.48;;;;;;;;;;5143359;27;20399;-69
2022/07/21 02:00:10;;;;;;;21.55;17.45;;;;;;;;;;5143566;27;20498;-69
2022/07/21 02:02:36;;;;;;;20.35;17.85;;;;;;;;;;5143517;27;20194;-69
2022/07/21 02:05:02;;;;;;;21.25;18.48;;;;;;;;;;5143639;27;20210;-69
2022/07/21 02:07:29;;;;;;;20.50;17.25;;;;;;;;;;5143096;27;20438;-69
2022/07/21 02:09:55;;;;;;;23.15;19.70;;;;;;;;;;5143743;27;20501;-69
2022/07/21 02:12:23;;;;;;;21.33;19.20;;;;;;;;;;5143250;27;20194;-69
2022/07/21 02:14:49;;;;;;;21.70;15.80;;;;;;;;;;5145405;27;20214;-69
2022/07/21 02:17:16;;;;;;;14.07;12.63;;;;;;;;;;5147474;27;20219;-69
2022/07/21 02:19:42;;;;;;;14.93;9.57;;;;;;;;;;5147429;27;20231;-69
2022/07/21 02:22:08;;;;;;;12.80;10.63;;;;;;;;;;5147262;27;20202;-69
2022/07/21 02:24:35;;;;;;;17.33;12.23;;;;;;;;;;5147562;27;20309;-69
2022/07/21 02:27:01;;;;;;;13.68;11.43;;;;;;;;;;5147225;27;20194;-69
2022/07/21 02:29:29;;;;;;;13.05;11.80;;;;;;;;;;5147441;27;20239;-69
2022/07/21 02:31:55;;;;;;;16.02;11.57;;;;;;;;;;5147385;27;20194;-70
2022/07/21 02:34:21;;;;;;;12.00;10.98;;;;;;;;;;5147002;27;20560;-70
2022/07/21 02:36:47;;;;;;;11.05;9.98;;;;;;;;;;5147150;27;20200;-70
2022/07/21 02:39:15;;;;;;;11.70;10.63;;;;;;;;;;5147223;27;20194;-70
2022/07/21 02:41:42;;;;;;;12.18;11.10;;;;;;;;;;5147159;27;20194;-69
2022/07/21 02:44:08;;;;;;;13.80;12.57;;;;;;;;;;5146989;27;20198;-69
2022/07/21 02:46:35;;;;;;;11.90;10.90;;;;;;;;;;5146856;27;20514;-69
2022/07/21 02:49:02;;;;;;;10.90;9.85;;;;;;;;;;5146925;27;20501;-69
2022/07/21 02:51:28;;;;;;;13.82;11.43;;;;;;;;;;5147331;27;20562;-69
2022/07/21 02:53:54;;;;;;;12.40;11.13;;;;;;;;;;5146761;27;20231;-69
2022/07/21 02:56:20;;;;;;;10.93;9.82;;;;;;;;;;5146460;27;20198;-69
2022/07/21 02:58:46;;;;;;;10.43;9.50;;;;;;;;;;5146821;27;20194;-69
2022/07/21 03:01:14;;;;;;;10.68;9.63;;;;;;;;;;5146826;27;20194;-69
2022/07/21 03:03:41;;;;;;;15.00;10.02;;;;;;;;;;5146577;27;20194;-69
2022/07/21 03:06:07;;;;;;;10.18;9.40;;;;;;;;;;5146236;27;20210;-69
2022/07/21 03:08:34;;;;;;;12.68;9.77;;;;;;;;;;5145573;27;20235;-69
2022/07/21 03:11:00;;;;;;;11.25;10.35;;;;;;;;;;5145314;27;20495;-69
2022/07/21 03:13:26;;;;;;;11.60;9.52;;;;;;;;;;5145336;27;20247;-69
2022/07/21 03:15:53;;;;;;;11.70;10.38;;;;;;;;;;5145194;27;20582;-69
2022/07/21 03:18:19;;;;;;;11.13;9.48;;;;;;;;;;5145157;27;20203;-69
2022/07/21 03:20:47;;;;;;;16.55;10.98;;;;;;;;;;5145376;27;20239;-69
2022/07/21 03:23:13;;;;;;;11.30;10.30;;;;;;;;;;5145349;27;20197;-69
2022/07/21 03:25:40;;;;;;;13.65;12.25;;;;;;;;;;5144803;27;20190;-69
2022/07/21 03:28:06;;;;;;;12.25;10.95;;;;;;;;;;5144749;27;20194;-69
2022/07/21 03:30:32;;;;;;;12.77;11.50;;;;;;;;;;5145044;27;20194;-69
2022/07/21 03:32:59;;;;;;;14.02;12.63;;;;;;;;;;5145267;27;20219;-69
2022/07/21 03:35:25;;;;;;;16.33;11.85;;;;;;;;;;5144726;27;20235;-69
2022/07/21 03:37:53;;;;;;;15.73;11.43;;;;;;;;;;5144731;27;20195;-69
2022/07/21 03:40:23;;;;;;;13.00;11.63;;;;;;;;;;5144894;27;20435;-69
2022/07/21 03:42:49;;;;;;;11.85;10.75;;;;;;;;;;5144794;27;20545;-69
2022/07/21 03:45:15;;;;;;;12.77;11.57;;;;;;;;;;5144653;27;20191;-69
2022/07/21 03:47:41;;;;;;;11.70;10.70;;;;;;;;;;5144791;27;20442;-69
2022/07/21 03:50:08;;;;;;;11.55;10.45;;;;;;;;;;5145088;27;20215;-69
2022/07/21 03:52:34;;;;;;;13.95;10.65;;;;;;;;;;5144578;27;20270;-69
2022/07/21 03:55:14;;;;;;;12.63;10.93;;;;;;;;;;5144492;27;20214;-69
2022/07/21 03:57:41;;;;;;;11.93;10.50;;;;;;;;;;5144159;27;20201;-69
2022/07/21 04:00:09;;;;;;;12.05;10.82;;;;;;;;;;5144423;27;20202;-69
2022/07/21 04:02:36;;;;;;;17.27;13.10;;;;;;;;;;5144542;27;20198;-69
2022/07/21 04:05:02;;;;;;;17.38;14.07;;;;;;;;;;5144782;27;20436;-69
2022/07/21 04:07:28;;;;;;;12.70;11.57;;;;;;;;;;5107612;27;1041730;-69
2022/07/21 04:09:55;;;;;;;12.10;10.90;;;;;;;;;;5145325;27;20194;-69
2022/07/21 04:12:25;;;;;;;12.23;10.15;;;;;;;;;;5145266;27;20194;-69
2022/07/21 04:14:51;;;;;;;10.70;9.80;;;;;;;;;;5145634;27;20222;-69
2022/07/21 04:17:17;;;;;;;13.65;10.13;;;;;;;;;;5145134;27;20427;-68
2022/07/21 04:19:44;;;;;;;13.07;10.95;;;;;;;;;;5145184;27;20198;-68
2022/07/21 04:22:10;;;;;;;11.85;9.82;;;;;;;;;;5145187;27;20232;-68
2022/07/21 04:24:36;;;;;;;11.75;10.52;;;;;;;;;;5145100;27;20191;-68
2022/07/21 04:27:02;;;;;;;11.02;10.10;;;;;;;;;;5144778;27;20194;-68
2022/07/21 04:29:30;;;;;;;16.95;10.85;;;;;;;;;;5144984;27;20198;-68
2022/07/21 04:31:56;;;;;;;13.30;11.95;;;;;;;;;;5145188;27;20187;-69
2022/07/21 04:34:22;;;;;;;11.38;10.23;;;;;;;;;;5144838;27;20247;-68
2022/07/21 04:36:49;;;;;;;10.85;9.77;;;;;;;;;;5143762;27;20202;-68
2022/07/21 04:39:15;;;;;;;11.10;10.07;;;;;;;;;;5144696;27;20198;-68
2022/07/21 04:41:41;;;;;;;15.63;12.35;;;;;;;;;;5144603;27;20194;-68
2022/07/21 04:44:07;;;;;;;11.45;10.45;;;;;;;;;;5144813;27;20194;-68
2022/07/21 04:46:35;;;;;;;12.00;9.95;;;;;;;;;;5144553;27;20203;-68
2022/07/21 04:49:01;;;;;;;11.32;9.65;;;;;;;;;;5144718;27;20194;-68
2022/07/21 04:51:27;;;;;;;11.43;10.23;;;;;;;;;;5144553;27;20220;-68
2022/07/21 04:53:53;;;;;;;11.75;10.35;;;;;;;;;;5144406;27;20194;-68
2022/07/21 04:56:20;;;;;;;11.32;10.13;;;;;;;;;;5144353;27;20218;-68
2022/07/21 04:58:46;;;;;;;15.02;11.13;;;;;;;;;;5144640;27;20198;-68
2022/07/21 05:01:12;;;;;;;12.18;10.93;;;;;;;;;;5144443;27;20198;-68
2022/07/21 05:03:40;;;;;;;11.55;10.50;;;;;;;;;;5144460;27;20194;-68
2022/07/21 05:06:06;;;;;;;11.93;9.80;;;;;;;;;;5143998;27;20275;-68
2022/07/21 05:08:32;;;;;;;16.15;10.50;;;;;;;;;;5144192;27;20186;-68
2022/07/21 05:10:58;;;;;;;12.30;9.93;;;;;;;;;;5144396;27;20247;-68
2022/07/21 05:13:25;;;;;;;11.77;10.52;;;;;;;;;;5144305;27;20363;-68
2022/07/21 05:15:51;;;;;;;11.95;10.95;;;;;;;;;;5144199;27;20239;-68
2022/07/21 05:18:17;;;;;;;12.27;10.93;;;;;;;;;;5145027;27;20198;-69
2022/07/21 05:20:45;;;;;;;11.95;10.40;;;;;;;;;;5146743;27;20186;-69
2022/07/21 05:23:11;;;;;;;11.25;10.35;;;;;;;;;;5143759;27;20254;-69
2022/07/21 05:25:37;;;;;;;14.55;10.55;;;;;;;;;;5144026;27;20202;-68
2022/07/21 05:28:04;;;;;;;11.52;10.40;;;;;;;;;;5143834;27;20239;-68
2022/07/21 05:30:30;;;;;;;13.50;10.20;;;;;;;;;;5143982;27;20425;-68
2022/07/21 05:32:56;;;;;;;11.52;10.40;;;;;;;;;;5143781;27;20202;-68
2022/07/21 05:35:22;;;;;;;13.75;11.45;;;;;;;;;;5143826;27;20435;-68
2022/07/21 05:37:50;;;;;;;11.70;10.48;;;;;;;;;;5143483;27;20501;-69
2022/07/21 05:40:16;;;;;;;12.63;11.32;;;;;;;;;;5143866;27;20198;-68
2022/07/21 05:42:43;;;;;;;14.65;10.65;;;;;;;;;;5143575;27;20194;-68
2022/07/21 05:45:09;;;;;;;13.10;11.80;;;;;;;;;;5143701;27;20512;-68
2022/07/21 05:47:36;;;;;;;12.30;11.20;;;;;;;;;;5143316;27;20194;-68
2022/07/21 05:50:02;;;;;;;13.00;11.40;;;;;;;;;;5141327;27;20197;-63
2022/07/21 05:52:28;;;;;;;13.75;11.10;;;;;;;;;;5155942;27;20206;-63
2022/07/21 05:54:56;;;;;;;12.13;10.93;;;;;;;;;;5157323;27;20209;-63
2022/07/21 05:57:22;;;;;;;12.32;10.95;;;;;;;;;;5141181;27;20251;-63
2022/07/21 05:59:48;;;;;;;12.80;10.43;;;;;;;;;;5136364;27;20214;-63
2022/07/21 06:02:15;;;;;;;12.18;10.65;;;;;;;;;;5153098;27;20253;-63
2022/07/21 06:04:41;;;;;;;11.48;10.48;;;;;;;;;;5134872;27;20558;-63
2022/07/21 06:07:07;;;;;;;11.10;10.10;;;;;;;;;;5138035;27;20524;-62
2022/07/21 06:09:33;;;;;;;14.05;11.32;;;;;;;;;;5141905;27;20206;-64
2022/07/21 06:12:01;;;;;;;12.90;10.52;;;;;;;;;;5141296;27;20251;-65
2022/07/21 06:14:28;;;;;;;12.27;11.18;;;;;;;;;;5138347;27;20533;-63
2022/07/21 06:16:55;;;;;;;10.68;9.60;;;;;;;;;;5155240;27;20261;-64
2022/07/21 06:19:21;;;;;;;13.90;10.20;;;;;;;;;;5155704;27;20214;-64
2022/07/21 06:21:47;;;;;;;12.30;11.13;;;;;;;;;;5155959;27;20209;-64
2022/07/21 06:24:13;;;;;;;15.88;10.45;;;;;;;;;;5156026;27;20254;-63
2022/07/21 06:26:40;;;;;;;11.20;10.30;;;;;;;;;;5135228;27;20518;-64
2022/07/21 06:29:07;;;;;;;12.98;9.75;;;;;;;;;;5134601;27;20556;-64
2022/07/21 06:31:34;;;;;;;11.68;10.45;;;;;;;;;;5134858;27;20254;-64
2022/07/21 06:34:00;;;;;;;10.52;9.52;;;;;;;;;;5154042;27;20468;-64
2022/07/21 06:36:26;;;;;;;11.27;10.15;;;;;;;;;;5144980;27;20234;-63
2022/07/21 06:38:52;;;;;;;11.40;10.30;;;;;;;;;;5134629;27;20217;-63
2022/07/21 06:41:19;;;;;;;10.40;9.40;;;;;;;;;;5143692;27;20439;-63
2022/07/21 06:43:45;;;;;;;13.40;9.82;;;;;;;;;;5139825;27;20536;-63
2022/07/21 06:46:12;;;;;;;12.05;10.85;;;;;;;;;;5156253;27;20407;-62
2022/07/21 06:48:39;;;;;;;11.50;9.50;;;;;;;;;;5152441;27;20514;-63
2022/07/21 06:51:05;;;;;;;10.75;9.70;;;;;;;;;;5154477;27;20400;-63
2022/07/21 06:53:31;;;;;;;10.35;9.35;;;;;;;;;;5156005;27;20414;-63
2022/07/21 06:55:58;;;;;;;10.95;9.85;;;;;;;;;;5136606;27;20272;-63
2022/07/21 06:58:24;;;;;;;11.65;9.90;;;;;;;;;;5134480;27;20258;-64
2022/07/21 07:00:51;;;;;;;11.48;10.40;;;;;;;;;;5136873;27;20270;-63
2022/07/21 07:03:19;;;;;;;12.45;9.68;;;;;;;;;;5138794;27;20205;-64
2022/07/21 07:05:46;;;;;;;10.40;9.27;;;;;;;;;;5147137;27;20225;-63
2022/07/21 07:08:13;;;;;;;11.45;9.82;;;;;;;;;;5138767;27;20221;-64
2022/07/21 07:10:39;;;;;;;12.70;10.10;;;;;;;;;;5155090;27;20209;-64
2022/07/21 07:13:05;;;;;;;11.13;9.82;;;;;;;;;;5138945;27;20541;-64
2022/07/21 07:15:32;;;;;;;11.43;10.23;;;;;;;;;;5157648;27;20220;-63
2022/07/21 07:17:58;;;;;;;10.80;9.80;;;;;;;;;;5156621;27;20233;-64
2022/07/21 07:20:25;;;;;;;14.93;10.07;;;;;;;;;;5147452;27;20210;-65
2022/07/21 07:22:52;;;;;;;11.00;9.88;;;;;;;;;;5140996;27;20210;-63
2022/07/21 07:25:18;;;;;;;11.30;10.20;;;;;;;;;;5142650;27;20217;-64
2022/07/21 07:27:45;;;;;;;12.07;10.80;;;;;;;;;;5154650;27;20281;-64
2022/07/21 07:30:11;;;;;;;12.00;10.30;;;;;;;;;;5145949;27;20221;-64
2022/07/21 07:32:38;;;;;;;12.30;10.50;;;;;;;;;;5155115;27;20214;-64
2022/07/21 07:35:05;;;;;;;12.00;10.35;;;;;;;;;;5158208;27;20782;-64
2022/07/21 07:37:33;;;;;;;12.30;11.10;;;;;;;;;;5158301;27;20225;-64
2022/07/21 07:40:00;;;;;;;12.60;10.38;;;;;;;;;;5158871;27;20209;-64
2022/07/21 07:42:26;;;;;;;12.73;11.05;;;;;;;;;;5158390;27;20213;-64
2022/07/21 07:44:52;;;;;;;11.32;10.25;;;;;;;;;;5158946;27;20209;-64
2022/07/21 07:47:18;;;;;;;12.88;10.48;;;;;;;;;;5158260;27;20205;-64
2022/07/21 07:49:45;;;;;;;12.57;10.20;;;;;;;;;;5158263;27;20249;-65
2022/07/21 07:52:11;;;;;;;11.30;10.30;;;;;;;;;;5153981;27;20213;-65
2022/07/21 07:54:38;;;;;;;12.35;9.60;;;;;;;;;;5158502;27;20248;-65
2022/07/21 07:57:05;;;;;;;9.65;8.85;;;;;;;;;;5157795;27;20229;-64
2022/07/21 07:59:31;;;;;;;12.77;10.25;;;;;;;;;;5143003;27;20493;-63
2022/07/21 08:01:57;;;;;;;10.48;9.38;;;;;;;;;;5149642;27;20250;-64
2022/07/21 08:04:23;;;;;;;11.82;9.27;;;;;;;;;;5137683;27;20214;-64
2022/07/21 08:06:49;;;;;;;10.20;9.20;;;;;;;;;;5137430;27;20262;-65
2022/07/21 08:09:18;;;;;;;9.82;8.82;;;;;;;;;;5141984;27;20393;-64
2022/07/21 08:11:46;;;;;;;9.82;8.90;;;;;;;;;;5148819;27;20566;-64
2022/07/21 08:14:13;;;;;;;12.00;10.27;;;;;;;;;;5150378;27;20214;-64
2022/07/21 08:16:39;;;;;;;10.65;9.75;;;;;;;;;;5136908;27;20226;-64
2022/07/21 08:19:05;;;;;;;11.10;10.13;;;;;;;;;;5137177;27;20262;-64
2022/07/21 08:21:33;;;;;;;12.20;9.15;;;;;;;;;;5136571;27;20214;-65
2022/07/21 08:23:59;;;;;;;9.48;8.65;;;;;;;;;;5136699;27;20228;-64
2022/07/21 08:26:26;;;;;;;9.77;8.82;;;;;;;;;;5137271;27;20210;-64
2022/07/21 08:28:54;;;;;;;9.75;8.73;;;;;;;;;;5136823;27;20255;-65
2022/07/21 08:31:20;;;;;;;10.93;8.60;;;;;;;;;;5141599;27;20213;-64
2022/07/21 08:33:46;;;;;;;10.75;9.60;;;;;;;;;;5157942;27;20209;-64
2022/07/21 08:36:13;;;;;;;8.48;7.65;;;;;;;;;;5157703;27;20580;-64
2022/07/21 08:38:39;;;;;;;11.10;8.27;;;;;;;;;;5141382;27;20214;-64
2022/07/21 08:41:07;;;;;;;9.13;8.27;;;;;;;;;;5155850;27;20261;-64
2022/07/21 08:43:33;;;;;;;9.45;7.47;;;;;;;;;;5156919;27;20258;-65
2022/07/21 08:46:01;;;;;;;8.38;6.95;;;;;;;;;;5157028;27;20205;-65
2022/07/21 08:48:29;;;;;;;8.80;7.15;;;;;;;;;;5155693;27;20209;-66
2022/07/21 08:50:55;;;;;;;10.70;7.90;;;;;;;;;;5145195;27;20209;-65
2022/07/21 08:53:22;;;;;;;10.43;7.13;;;;;;;;;;5143336;27;20574;-73
2022/07/21 08:55:48;;;;;;;8.18;6.60;;;;;;;;;;5134769;27;20490;-71
2022/07/21 08:58:15;;;;;;;8.35;7.28;;;;;;;;;;5137491;27;20271;-71
2022/07/21 09:00:42;;;;;;;7.47;6.75;;;;;;;;;;5136156;27;20214;-71
2022/07/21 09:03:11;;;;;;;7.80;5.82;;;;;;;;;;5140120;27;20198;-71
2022/07/21 09:05:37;;;;;;;7.28;5.40;;;;;;;;;;5139013;27;20225;-71
2022/07/21 09:08:04;;;;;;;6.68;5.97;;;;;;;;;;5152696;27;20213;-71
2022/07/21 09:10:31;;;;;;;5.22;4.80;;;;;;;;;;5137682;27;20420;-71
2022/07/21 09:12:59;;;;;;;6.50;5.18;;;;;;;;;;5153472;27;20378;-71
2022/07/21 09:15:26;;;;;;;7.50;5.43;;;;;;;;;;5135458;27;20255;-71
2022/07/21 09:18:04;;;;;;;5.97;5.40;;;;;;;;;;5135519;27;20262;-71
2022/07/21 09:20:32;;;;;;;5.68;5.28;;;;;;;;;;5139951;27;20412;-71
2022/07/21 09:23:01;;;;;;;6.20;5.20;;;;;;;;;;5150018;27;20209;-71
2022/07/21 09:25:35;;;;;;;5.57;5.07;;;;;;;;;;5156412;27;20208;-71
2022/07/21 09:28:07;;;;;;;6.97;5.50;;;;;;;;;;5156590;27;20212;-71
2022/07/21 09:30:47;;;;;;;6.43;5.03;;;;;;;;;;5156800;27;20521;-71
2022/07/21 09:33:18;;;;;;;5.28;4.85;;;;;;;;;;5156986;27;20254;-71
2022/07/21 09:35:53;;;;;;;6.32;4.85;;;;;;;;;;5147212;27;20270;-70
2022/07/21 09:38:19;;;;;;;11.27;5.30;;;;;;;;;;5153583;27;20246;-70
2022/07/21 09:40:47;;;;;;;5.40;4.40;;;;;;;;;;5152135;27;20209;-70
2022/07/21 09:43:28;;;;;;;7.45;4.95;;;;;;;;;;5148608;27;20213;-70
2022/07/21 09:45:54;;;;;;;6.43;4.40;;;;;;;;;;5145209;27;20451;-70
2022/07/21 09:48:29;;;;;;;5.60;4.75;;;;;;;;;;5146697;27;20243;-69
2022/07/21 09:50:57;;;;;;;4.80;4.38;;;;;;;;;;5139519;27;20208;-70
2022/07/21 09:53:23;;;;;;;4.70;4.22;;;;;;;;;;5156553;27;20212;-69
2022/07/21 09:55:50;;;;;;;5.40;5.00;;;;;;;;;;5155959;27;20265;-69
2022/07/21 09:58:16;;;;;;;4.85;4.45;;;;;;;;;;5156009;27;20228;-69
2022/07/21 10:00:43;;;;;;;4.68;4.30;;;;;;;;;;5156864;27;20213;-69
2022/07/21 10:03:09;;;;;;;4.63;3.88;;;;;;;;;;5155356;27;20246;-70
2022/07/21 10:05:36;;;;;;;5.30;4.07;;;;;;;;;;5156060;27;20571;-70
2022/07/21 10:08:04;;;;;;;5.10;4.70;;;;;;;;;;5155982;27;20213;-70
2022/07/21 10:10:30;;;;;;;4.03;3.63;;;;;;;;;;5154656;27;20209;-70
2022/07/21 10:12:56;;;;;;;4.05;3.72;;;;;;;;;;5153969;27;20205;-69
2022/07/21 10:15:22;;;;;;;4.32;4.03;;;;;;;;;;5138208;27;20272;-70
2022/07/21 10:17:51;;;;;;;4.40;4.00;;;;;;;;;;5138830;27;20407;-72
2022/07/21 10:20:21;;;;;;;6.53;4.20;;;;;;;;;;5134841;27;20275;-70
2022/07/21 10:22:56;;;;;;;4.70;4.30;;;;;;;;;;5148408;27;20209;-71
2022/07/21 10:25:24;;;;;;;7.32;3.83;;;;;;;;;;5155608;27;20212;-70
2022/07/21 10:28:13;;;;;;;4.60;4.20;;;;;;;;;;5154744;27;20557;-70
2022/07/21 10:30:40;;;;;;;4.47;4.18;;;;;;;;;;5134170;27;20209;-70
2022/07/21 10:33:06;;;;;;;5.07;4.60;;;;;;;;;;5138808;27;21375;-70
2022/07/21 10:35:33;;;;;;;3.78;3.60;;;;;;;;;;5136262;27;20653;-70
2022/07/21 10:37:59;;;;;;;4.50;4.13;;;;;;;;;;5138544;27;20298;-70
2022/07/21 10:40:42;;;;;;;4.85;4.45;;;;;;;;;;5138623;27;20217;-71
2022/07/21 10:43:32;;;;;;;4.50;4.10;;;;;;;;;;5144027;27;20239;-70
2022/07/21 10:45:59;;;;;;;4.45;4.03;;;;;;;;;;5148781;27;20209;-70
2022/07/21 10:48:44;;;;;;;4.50;4.20;;;;;;;;;;5147078;27;20261;-72
2022/07/21 10:51:12;;;;;;;4.00;3.80;;;;;;;;;;5156037;27;20439;-70
2022/07/21 10:53:38;;;;;;;4.50;4.07;;;;;;;;;;5151294;27;20249;-70
2022/07/21 10:56:06;;;;;;;4.40;4.10;;;;;;;;;;5159056;27;20213;-70
2022/07/21 10:58:33;;;;;;;4.13;3.83;;;;;;;;;;5141981;27;20265;-71
2022/07/21 11:01:00;;;;;;;4.18;3.88;;;;;;;;;;5148658;27;20208;-71
2022/07/21 11:03:29;;;;;;;4.10;3.75;;;;;;;;;;5147320;27;20508;-70
2022/07/21 11:06:19;;;;;;;5.57;3.58;;;;;;;;;;5152235;27;20232;-70
2022/07/21 11:08:45;;;;;;;4.25;3.85;;;;;;;;;;5139488;27;20460;-69
2022/07/21 11:11:14;;;;;;;3.75;3.55;;;;;;;;;;5138053;27;20518;-69
2022/07/21 11:14:10;;;;;;;4.43;4.00;;;;;;;;;;5138700;27;20259;-71
2022/07/21 11:16:56;;;;;;;3.97;3.70;;;;;;;;;;5073934;28;20216;-70
2022/07/21 11:19:33;;;;;;;4.55;4.15;;;;;;;;;;5125330;27;20250;-70
2022/07/21 11:22:01;;;;;;;4.38;3.97;;;;;;;;;;5150171;27;20530;-70
2022/07/21 11:24:27;;;;;;;4.07;3.83;;;;;;;;;;5159412;27;20213;-70
2022/07/21 11:26:59;;;;;;;6.22;4.40;;;;;;;;;;5145629;27;20259;-70
2022/07/21 11:29:25;;;;;;;4.70;4.28;;;;;;;;;;5159240;27;20417;-70
2022/07/21 11:31:52;;;;;;;5.75;4.57;;;;;;;;;;5157927;27;20208;-69
2022/07/21 11:34:18;;;;;;;3.97;3.78;;;;;;;;;;5158907;27;20253;-70
2022/07/21 11:36:45;;;;;;;5.53;5.03;;;;;;;;;;5158648;27;20213;-70
2022/07/21 11:39:12;;;;;;;4.75;4.38;;;;;;;;;;5138425;27;20529;-70
2022/07/21 11:41:39;;;;;;;5.55;4.60;;;;;;;;;;5137790;27;20281;-70
2022/07/21 11:44:07;;;;;;;3.65;3.40;;;;;;;;;;5137501;27;20206;-70
2022/07/21 11:46:50;;;;;;;47.90;16.00;;;;;;;;;;5137142;27;20213;-69
2022/07/21 11:49:16;;;;;;;12.15;5.72;;;;;;;;;;5137953;27;20214;-69
2022/07/21 11:51:50;;;;;;;10.70;7.22;;;;;;;;;;5137854;27;20250;-70
2022/07/21 11:54:20;;;;;;;5.00;4.07;;;;;;;;;;5137512;27;20214;-70
2022/07/21 11:56:47;;;;;;;3.85;3.60;;;;;;;;;;5137926;27;20209;-71
2022/07/21 11:59:15;;;;;;;4.43;4.03;;;;;;;;;;5145806;27;20574;-70
2022/07/21 12:01:48;;;;;;;3.65;3.35;;;;;;;;;;5150322;27;20206;-70
2022/07/21 12:04:14;;;;;;;3.88;3.58;;;;;;;;;;5146227;27;20261;-69
2022/07/21 12:06:41;;;;;;;6.47;3.63;;;;;;;;;;5137153;27;20278;-71
2022/07/21 12:09:07;;;;;;;4.63;3.80;;;;;;;;;;5137458;27;20437;-70
2022/07/21 12:11:35;;;;;;;4.53;4.13;;;;;;;;;;5137610;27;20275;-69
2022/07/21 12:14:02;;;;;;;5.28;4.32;;;;;;;;;;5143230;27;20269;-69
2022/07/21 12:16:30;;;;;;;7.22;5.78;;;;;;;;;;5156167;27;20219;-69
2022/07/21 12:19:12;;;;;;;5.43;3.92;;;;;;;;;;5147147;27;20369;-69
2022/07/21 12:21:45;;;;;;;4.45;4.00;;;;;;;;;;5150103;27;20209;-69
2022/07/21 12:24:12;;;;;;;4.70;3.90;;;;;;;;;;5136725;27;20217;-69
2022/07/21 12:26:38;;;;;;;4.07;3.70;;;;;;;;;;5136641;27;20233;-70
2022/07/21 12:29:04;;;;;;;4.45;4.15;;;;;;;;;;5143730;27;20205;-70
2022/07/21 12:31:34;;;;;;;4.57;4.18;;;;;;;;;;5155272;27;20213;-70
2022/07/21 12:34:11;;;;;;;4.28;3.97;;;;;;;;;;5137185;27;20241;-70
2022/07/21 12:36:37;;;;;;;4.03;3.83;;;;;;;;;;5143037;27;20209;-70
2022/07/21 12:39:14;;;;;;;4.30;3.90;;;;;;;;;;5138003;27;20229;-70
2022/07/21 12:41:44;;;;;;;4.68;3.80;;;;;;;;;;5135605;27;20206;-70
2022/07/21 12:44:10;;;;;;;3.92;3.60;;;;;;;;;;5147384;27;20213;-70
2022/07/21 12:46:39;;;;;;;3.92;3.67;;;;;;;;;;5149198;27;20298;-70
2022/07/21 12:49:05;;;;;;;3.95;3.13;;;;;;;;;;5136821;27;20206;-70
2022/07/21 12:51:32;;;;;;;4.05;3.60;;;;;;;;;;5141641;27;20209;-70
2022/07/21 12:53:58;;;;;;;6.13;4.13;;;;;;;;;;5153904;27;20249;-70
2022/07/21 12:56:25;;;;;;;3.63;3.42;;;;;;;;;;5147911;27;20255;-69
2022/07/21 12:58:52;;;;;;;4.35;3.88;;;;;;;;;;5140298;27;20234;-69
2022/07/21 13:01:19;;;;;;;3.97;3.65;;;;;;;;;;5139686;27;20205;-70
2022/07/21 13:03:47;;;;;;;4.45;3.80;;;;;;;;;;5137058;27;20251;-69
2022/07/21 13:06:15;;;;;;;4.20;3.33;;;;;;;;;;5135580;27;20279;-70
2022/07/21 13:08:42;;;;;;;4.00;3.70;;;;;;;;;;5140190;27;20426;-70
2022/07/21 13:11:08;;;;;;;3.10;2.90;;;;;;;;;;5152496;27;21100;-70
2022/07/21 13:13:35;;;;;;;4.95;3.80;;;;;;;;;;5141096;27;20210;-70
2022/07/21 13:16:01;;;;;;;5.82;4.15;;;;;;;;;;5150475;27;20215;-69
2022/07/21 13:18:28;;;;;;;4.57;4.28;;;;;;;;;;5155979;27;20263;-69
2022/07/21 13:20:55;;;;;;;5.10;4.63;;;;;;;;;;5156681;27;20209;-69
2022/07/21 13:23:22;;;;;;;4.78;4.20;;;;;;;;;;5143554;27;20255;-69
2022/07/21 13:25:49;;;;;;;4.97;4.53;;;;;;;;;;5140692;27;20356;-70
2022/07/21 13:28:15;;;;;;;5.10;4.72;;;;;;;;;;5148584;27;20868;-69
2022/07/21 13:30:41;;;;;;;5.82;5.43;;;;;;;;;;5155682;27;20225;-69
2022/07/21 13:33:07;;;;;;;5.57;5.18;;;;;;;;;;5156060;27;20408;-69
2022/07/21 13:35:34;;;;;;;5.68;4.63;;;;;;;;;;5156815;27;20235;-73
2022/07/21 13:38:01;;;;;;;5.15;4.85;;;;;;;;;;5141418;27;20225;-73
2022/07/21 13:40:28;;;;;;;5.03;4.45;;;;;;;;;;5152457;27;20212;-73
2022/07/21 13:42:55;;;;;;;5.35;4.90;;;;;;;;;;5144367;27;20232;-73
2022/07/21 13:45:21;;;;;;;5.00;4.70;;;;;;;;;;5152779;27;20240;-73
2022/07/21 13:47:47;;;;;;;5.05;4.38;;;;;;;;;;5148204;27;20547;-73
2022/07/21 13:50:14;;;;;;;6.32;4.75;;;;;;;;;;5155581;27;20544;-73
2022/07/21 13:52:40;;;;;;;5.18;4.88;;;;;;;;;;5148360;27;20214;-73
2022/07/21 13:55:09;;;;;;;5.05;4.75;;;;;;;;;;5150389;27;20201;-73
2022/07/21 13:57:36;;;;;;;5.30;4.80;;;;;;;;;;5146215;27;20225;-73
2022/07/21 14:00:03;;;;;;;6.30;4.88;;;;;;;;;;5144089;27;20602;-73
2022/07/21 14:02:29;;;;;;;7.68;5.25;;;;;;;;;;5138962;27;20464;-73
2022/07/21 14:04:56;;;;;;;7.95;4.70;;;;;;;;;;5153096;27;20225;-73
2022/07/21 14:07:22;;;;;;;5.25;4.75;;;;;;;;;;5155532;27;20408;-73
2022/07/21 14:09:48;;;;;;;5.40;5.00;;;;;;;;;;5144883;27;20214;-73
2022/07/21 14:12:18;;;;;;;5.57;4.50;;;;;;;;;;5139404;27;20235;-73
2022/07/21 14:14:46;;;;;;;5.20;4.90;;;;;;;;;;5139914;27;20217;-73
2022/07/21 14:17:13;;;;;;;4.97;4.55;;;;;;;;;;5139543;27;20213;-73
2022/07/21 14:19:39;;;;;;;5.43;4.75;;;;;;;;;;5139090;27;20618;-73
2022/07/21 14:22:05;;;;;;;5.20;4.70;;;;;;;;;;5139566;27;20458;-73
2022/07/21 14:27:16;;;;;;;4.88;4.50;;;;;;;;;;5160232;27;20212;-73
2022/07/21 14:29:42;;;;;;;5.85;4.13;;;;;;;;;;5147148;27;20205;-73
2022/07/21 14:32:09;;;;;;;6.85;4.47;;;;;;;;;;5159706;27;20217;-73
2022/07/21 14:34:35;;;;;;;7.13;4.35;;;;;;;;;;5159874;27;20201;-73